Flight Track Log - Related Links

Times and Time Zones

All times are in EDT time to prevent confusion due to time zone crossing. See the SKW4664 flight status page for this flight to view local times or setup timezone preferences in your user account.

Time Position Orientation Groundspeed Altitude Reporting Facility
EDT Latitude Longitude Course Direction KTS MPH feet Rate Location/Type
Tue 10:36:32 AM 44.8500 -93.2333 235° Southwest 159 183 2,000  Level Minneapolis TRACON
Tue 10:37:19 AM 44.8050 -93.2403 186° South 191 220 3,300 1,651 Climbing Minneapolis Center
Tue 10:38:21 AM 44.7533 -93.2858 212° Southwest 230 265 5,000 1,897 Climbing Minneapolis Center
Tue 10:39:00 AM 44.6352 -93.7297 235° Southwest  Level FlightAware Approximate
Tue 10:39:35 AM 44.7156 -93.3681 237° Southwest 262 302 7,600  Level Minneapolis Center
Tue 10:40:00 AM 44.5652 -93.8525 230° Southwest  Level FlightAware Approximate
Tue 10:40:38 AM 44.6839 -93.4825 249° West 263 303 10,400  Level Minneapolis Center
Tue 10:41:00 AM 44.4951 -93.9766 235° Southwest  Level FlightAware Approximate
Tue 10:41:40 AM 44.6483 -93.6111 249° West 294 338 12,500  Level Minneapolis Center
Tue 10:42:42 AM 44.6167 -93.7236 248° West 307 353 14,500 1,742 Climbing Minneapolis Center
Tue 10:43:44 AM 44.5844 -93.8350 248° West 310 357 16,100 1,403 Climbing Minneapolis Center
Tue 10:44:46 AM 44.5339 -93.9358 235° Southwest 317 365 17,400 1,113 Climbing Minneapolis Center
Tue 10:45:48 AM 44.4811 -94.0386 234° Southwest 325 374 18,400 1,065 Climbing Minneapolis Center
Tue 10:46:50 AM 44.4264 -94.1419 233° Southwest 329 379 19,600 1,191 Climbing Minneapolis Center
Tue 10:48:04 AM 44.3594 -94.2686 234° Southwest 338 389 21,100 1,139 Climbing Minneapolis Center
Tue 10:49:07 AM 44.2933 -94.3956 234° Southwest 338 389 22,200 960 Climbing Minneapolis Center
Tue 10:50:09 AM 44.2361 -94.5036 234° Southwest 346 398 23,100 871 Climbing Minneapolis Center
Tue 10:51:11 AM 44.1972 -94.6492 250° West 352 405 24,000 435 Climbing Minneapolis Center
Tue 10:52:13 AM 44.1594 -94.7786 248° West 358 412 24,000  Level Minneapolis Center
Tue 10:53:15 AM 44.1236 -94.9061 249° West 355 409 24,000  Level Minneapolis Center
Tue 10:54:17 AM 44.0875 -95.0325 248° West 354 407 24,000  Level Minneapolis Center
Tue 10:55:19 AM 44.0517 -95.1594 249° West 352 405 24,000  Level Minneapolis Center
Tue 10:56:21 AM 44.0150 -95.2850 248° West 351 404 24,000  Level Minneapolis Center
Tue 10:57:23 AM 43.9789 -95.4100 248° West 349 402 24,000 -1,016 Level Minneapolis Center
Tue 10:58:25 AM 43.9347 -95.5617 248° West 352 405 21,900 -2,256 Descending Minneapolis Center
Tue 10:59:28 AM 43.8981 -95.6856 248° West 348 400 19,300 -2,304 Descending Minneapolis Center
Tue 11:00:30 AM 43.8575 -95.8028 244° Southwest 338 389 17,100 -2,274 Descending Minneapolis Center
Tue 11:01:32 AM 43.8056 -95.9078 236° Southwest 330 380 14,600 -2,419 Descending Minneapolis Center
Tue 11:02:34 AM 43.7556 -96.0100 236° Southwest 322 371 12,100 -2,274 Descending Minneapolis Center
Tue 11:03:36 AM 43.7067 -96.1108 236° Southwest 317 365 9,900 -1,984 Descending Minneapolis Center
Tue 11:04:38 AM 43.6964 -96.2408 264° West 289 333 8,000 -1,694 Descending Minneapolis Center
Tue 11:05:40 AM 43.6881 -96.3411 263° West 276 318 6,400 -1,403 Descending Minneapolis Center
Tue 11:06:42 AM 43.6792 -96.4353 263° West 263 303 5,100 -1,113 Descending Minneapolis Center
Tue 11:07:44 AM 43.6719 -96.5211 263° West 246 283 4,100 -823 Descending Minneapolis Center
Tue 11:08:46 AM 43.6661 -96.5956 264° West 222 255 3,400 -677 Descending Minneapolis Center

Login

Don't have an account? Register now (free) for customized features, flight alerts, and more!